Time;durP1;ratioP1;P1;durP2;ratioP2;P2;SDS_P1;SDS_P2;PMS_P1;PMS_P2;Temp;Humidity;BMP_temperature;BMP_pressure;BME280_temperature;BME280_humidity;BME280_pressure;Samples;Min_cycle;Max_cycle;Signal;HPM_P1;HPM_P2
2023/05/09 00:00:38;;;;;;;1.45;0.47;;;;;;;10.05;51.74;101961.81;15519989;28;20053;-51
2023/05/09 00:08:12;;;;;;;0.55;0.43;;;;;;;9.61;52.91;101965.06;15531219;28;20042;-51
2023/05/09 00:15:45;;;;;;;1.67;0.75;;;;;;;9.52;53.08;101967.94;15551255;28;20049;-48
2023/05/09 00:23:19;;;;;;;1.83;0.90;;;;;;;9.49;53.38;101977.16;15552164;28;20411;-49
2023/05/09 00:30:52;;;;;;;0.65;0.47;;;;;;;9.28;53.78;101972.38;15549061;28;20049;-49
2023/05/09 00:38:27;;;;;;;0.30;0.30;;;;;;;9.35;53.84;101977.84;15519710;28;20050;-50
2023/05/09 00:46:00;;;;;;;0.80;0.40;;;;;;;9.23;54.25;101972.00;15542357;28;20133;-48
2023/05/09 00:53:36;;;;;;;1.30;0.77;;;;;;;9.20;54.31;101961.66;15485187;28;20391;-50
2023/05/09 01:01:09;;;;;;;1.08;0.57;;;;;;;9.29;53.79;101949.91;15531913;28;20053;-50
2023/05/09 01:08:51;;;;;;;1.17;0.50;;;;;;;9.10;54.32;101951.13;15549816;28;20448;-49
2023/05/09 01:16:29;;;;;;;0.43;0.30;;;;;;;9.08;54.26;101939.75;15548567;28;20044;-48
2023/05/09 01:24:29;;;;;;;1.98;0.55;;;;;;;8.92;54.26;101935.25;15533791;28;20046;-51
2023/05/09 01:32:09;;;;;;;1.33;0.97;;;;;;;8.77;54.35;101912.88;15501637;28;20148;-47
2023/05/09 01:39:48;;;;;;;0.90;0.57;;;;;;;8.82;54.32;101933.78;15502127;28;20183;-54
2023/05/09 01:47:23;;;;;;;0.57;0.57;;;;;;;8.79;54.12;101928.75;15535350;28;20053;-52
2023/05/09 01:54:56;;;;;;;1.45;0.98;;;;;;;8.74;53.94;101944.50;15521108;28;20147;-53
2023/05/09 02:02:32;;;;;;;1.02;0.50;;;;;;;8.65;53.85;101927.59;15528436;28;20046;-50
2023/05/09 02:10:08;;;;;;;0.25;0.20;;;;;;;8.50;54.34;101929.28;15546505;28;20371;-53
2023/05/09 02:17:45;;;;;;;2.40;0.77;;;;;;;8.72;53.61;101928.59;15536041;28;20133;-54
2023/05/09 02:25:18;;;;;;;0.65;0.60;;;;;;;8.59;53.81;101934.47;15486845;28;20056;-51
2023/05/09 02:32:56;;;;;;;1.50;0.87;;;;;;;8.46;54.14;101939.47;15535381;28;20038;-51
2023/05/09 02:40:30;;;;;;;1.05;0.45;;;;;;;8.18;55.08;101929.06;15531027;28;20046;-49
2023/05/09 02:48:06;;;;;;;1.17;0.50;;;;;;;7.92;55.25;101929.16;15557122;28;20038;-51
2023/05/09 02:55:38;;;;;;;0.77;0.50;;;;;;;8.42;54.01;101932.78;15523966;28;20149;-48
2023/05/09 03:03:13;;;;;;;0.43;0.43;;;;;;;8.22;54.13;101923.38;15515110;28;20057;-49
2023/05/09 03:10:46;;;;;;;0.65;0.57;;;;;;;8.30;53.92;101920.69;15536779;28;20140;-53
2023/05/09 03:18:21;;;;;;;1.90;0.90;;;;;;;8.02;54.47;101910.31;15550091;28;20048;-48
2023/05/09 03:25:53;;;;;;;6.03;0.95;;;;;;;7.73;55.01;101910.75;15506380;28;20480;-49
2023/05/09 03:33:28;;;;;;;0.77;0.33;;;;;;;7.82;54.71;101900.91;15533203;28;20050;-53
2023/05/09 03:41:01;;;;;;;0.20;0.20;;;;;;;7.97;54.63;101901.94;15536412;28;20462;-51
2023/05/09 03:48:35;;;;;;;1.80;0.70;;;;;;;7.57;55.18;101905.38;15523926;28;20073;-50
2023/05/09 03:56:10;;;;;;;0.57;0.57;;;;;;;7.73;55.22;101899.22;15499444;28;20042;-51
2023/05/09 04:03:52;;;;;;;0.10;0.10;;;;;;;7.74;54.88;101893.72;15519717;28;20438;-49
2023/05/09 04:11:27;;;;;;;0.98;0.35;;;;;;;7.56;55.07;101901.84;15511779;28;20061;-51
2023/05/09 04:19:05;;;;;;;0.57;0.32;;;;;;;7.70;54.97;101904.91;15563428;28;20038;-51
2023/05/09 04:26:39;;;;;;;0.50;0.40;;;;;;;7.78;54.98;101897.72;15505872;28;20054;-49
2023/05/09 04:34:16;;;;;;;0.80;0.52;;;;;;;7.80;55.22;101900.25;15518340;28;20064;-50
2023/05/09 04:41:51;;;;;;;0.35;0.35;;;;;;;8.16;54.24;101898.97;15519216;28;20038;-49
2023/05/09 04:49:28;;;;;;;0.70;0.32;;;;;;;8.30;54.19;101902.84;15517310;28;20811;-50
2023/05/09 04:57:03;;;;;;;0.32;0.20;;;;;;;8.57;54.49;101895.47;15491386;28;20138;-51
2023/05/09 05:04:38;;;;;;;0.82;0.82;;;;;;;8.75;53.51;101895.31;15526582;28;20545;-49
2023/05/09 05:12:12;;;;;;;0.45;0.35;;;;;;;9.03;52.99;101887.69;15534466;28;20495;-55
2023/05/09 05:19:48;;;;;;;0.77;0.63;;;;;;;9.34;52.10;101885.94;15530035;28;20089;-51
2023/05/09 05:27:22;;;;;;;0.63;0.63;;;;;;;9.56;51.42;101875.41;15505038;28;20074;-50
2023/05/09 05:34:56;;;;;;;2.80;1.33;;;;;;;9.83;51.11;101874.94;15549975;28;20038;-53
2023/05/09 05:42:29;;;;;;;2.30;0.63;;;;;;;10.65;49.04;101859.03;15548203;28;20595;-50
2023/05/09 05:50:07;;;;;;;1.23;0.90;;;;;;;11.43;46.42;101862.19;15550082;28;20100;-52
2023/05/09 05:57:41;;;;;;;1.55;0.70;;;;;;;11.60;45.82;101812.50;15542010;28;20052;-53
2023/05/09 06:05:19;;;;;;;0.20;0.20;;;;;;;12.71;43.04;101840.63;15544873;28;20400;-54
2023/05/09 06:12:52;;;;;;;3.25;0.82;;;;;;;12.38;44.30;101831.47;15540535;28;20064;-52
2023/05/09 06:20:26;;;;;;;1.90;0.90;;;;;;;13.25;42.67;101821.03;15559429;28;20053;-52
2023/05/09 06:28:00;;;;;;;1.25;0.32;;;;;;;13.03;42.15;101814.91;15556550;28;20073;-52
2023/05/09 06:35:34;;;;;;;0.70;0.60;;;;;;;12.99;42.41;101816.31;15563163;28;20038;-50
2023/05/09 06:43:07;;;;;;;1.60;1.23;;;;;;;12.67;42.51;101804.31;15557583;28;20042;-50
2023/05/09 06:50:41;;;;;;;0.37;0.23;;;;;;;13.18;41.36;101795.88;15582101;28;20037;-53
2023/05/09 06:58:15;;;;;;;0.68;0.43;;;;;;;13.25;41.45;101775.22;15552455;28;20141;-52
2023/05/09 07:05:50;;;;;;;0.70;0.30;;;;;;;13.22;41.68;101772.91;15556905;28;20100;-53
2023/05/09 07:13:23;;;;;;;0.60;0.55;;;;;;;14.60;39.52;101764.28;15557311;28;20474;-55
2023/05/09 07:20:57;;;;;;;0.23;0.23;;;;;;;14.62;39.15;101754.09;15555206;28;20053;-54
2023/05/09 07:28:30;;;;;;;2.13;0.80;;;;;;;16.81;36.27;101740.66;15552576;28;20309;-51
2023/05/09 07:36:04;;;;;;;0.70;0.30;;;;;;;16.01;36.54;101750.63;15550000;28;20046;-51
2023/05/09 07:43:37;;;;;;;2.05;0.52;;;;;;;15.46;37.88;101751.22;15556411;28;20491;-50
2023/05/09 07:51:11;;;;;;;1.03;0.40;;;;;;;15.66;37.88;101726.75;15539781;28;20092;-50
2023/05/09 07:58:44;;;;;;;0.98;0.30;;;;;;;16.20;37.33;101725.25;15521254;28;20297;-48
2023/05/09 08:06:18;;;;;;;3.60;1.60;;;;;;;16.48;36.12;101716.59;15550009;28;20042;-52
2023/05/09 08:13:50;;;;;;;0.70;0.60;;;;;;;15.70;37.03;101706.31;15547821;28;20510;-52
2023/05/09 08:21:25;;;;;;;1.23;0.52;;;;;;;16.44;35.80;101701.84;15548154;28;20112;-49
2023/05/09 08:28:58;;;;;;;0.90;0.20;;;;;;;15.63;35.77;101700.09;15551833;28;20058;-53
2023/05/09 08:36:32;;;;;;;2.72;1.08;;;;;;;15.60;34.74;101694.28;15551678;28;20153;-53
2023/05/09 08:44:05;;;;;;;0.68;0.50;;;;;;;16.30;34.41;101693.03;15566121;28;20042;-51
2023/05/09 08:51:40;;;;;;;;;;;;;;;16.67;33.67;101671.34;15557623;28;20049;-53
2023/05/09 08:59:14;;;;;;;2.38;0.40;;;;;;;16.62;32.56;101668.50;15566237;28;19925;-50
2023/05/09 09:06:48;;;;;;;0.45;0.40;;;;;;;16.55;31.28;101646.06;15548515;28;20038;-55
2023/05/09 09:14:25;;;;;;;1.17;0.30;;;;;;;16.11;32.33;101645.31;15550256;28;20058;-52
2023/05/09 09:22:02;;;;;;;3.28;0.30;;;;;;;17.13;32.58;101650.94;15555874;28;20129;-49
2023/05/09 09:29:35;;;;;;;1.45;0.50;;;;;;;17.16;30.56;101650.50;15500201;28;20038;-52
2023/05/09 09:37:09;;;;;;;0.63;0.45;;;;;;;17.32;32.03;101627.28;15559535;28;20042;-59
2023/05/09 09:44:42;;;;;;;1.52;0.75;;;;;;;17.20;31.28;101620.97;15562105;28;20125;-50
2023/05/09 09:52:23;;;;;;;1.17;0.60;;;;;;;17.84;29.55;101614.69;15551691;28;20438;-54
2023/05/09 10:00:03;;;;;;;0.30;0.20;;;;;;;17.98;31.45;101595.44;15561973;28;20558;-50
2023/05/09 10:07:39;;;;;;;1.17;0.38;;;;;;;18.50;29.58;101592.69;15558551;28;20518;-52
2023/05/09 10:15:13;;;;;;;1.15;0.70;;;;;;;18.22;29.95;101578.00;15538895;28;20072;-50
2023/05/09 10:22:50;;;;;;;1.80;0.50;;;;;;;18.04;30.70;101562.69;15557836;28;20054;-49
2023/05/09 10:30:29;;;;;;;1.10;0.35;;;;;;;18.20;30.77;101555.69;15558617;28;20048;-50
2023/05/09 10:38:04;;;;;;;2.22;0.98;;;;;;;17.77;30.89;101553.44;15558773;28;20404;-52
2023/05/09 10:45:38;;;;;;;1.05;0.35;;;;;;;18.51;30.71;101542.69;15556944;28;20125;-55
2023/05/09 10:53:15;;;;;;;0.22;0.10;;;;;;;18.97;29.46;101536.19;15554468;28;20096;-53
2023/05/09 11:00:48;;;;;;;0.80;0.60;;;;;;;19.40;29.73;101523.81;15568165;23;20064;-53
2023/05/09 11:08:25;;;;;;;1.33;0.52;;;;;;;19.13;29.81;101512.78;15546229;28;20050;-51
2023/05/09 11:16:12;;;;;;;0.63;0.60;;;;;;;19.40;29.04;101493.03;15533021;28;20050;-48
2023/05/09 11:23:47;;;;;;;1.60;0.55;;;;;;;19.84;28.30;101480.31;15541375;28;20054;-50
2023/05/09 11:31:20;;;;;;;0.55;0.13;;;;;;;19.37;29.42;101456.25;15539481;28;20277;-47
2023/05/09 11:39:06;;;;;;;0.50;0.40;;;;;;;19.69;28.02;101422.94;15543151;28;20050;-47
2023/05/09 11:46:39;;;;;;;0.98;0.57;;;;;;;19.90;28.39;101421.25;15544959;28;20042;-52
2023/05/09 11:54:13;;;;;;;0.80;0.47;;;;;;;20.52;28.28;101408.00;15543068;28;20042;-51
2023/05/09 12:01:46;;;;;;;0.68;0.47;;;;;;;20.28;29.50;101393.81;15512249;28;20064;-52
2023/05/09 12:09:21;;;;;;;;;;;;;;;21.10;27.71;101394.47;15538662;28;20495;-53
2023/05/09 12:16:54;;;;;;;0.43;0.40;;;;;;;21.07;28.04;101373.16;15525319;28;19921;-49
2023/05/09 12:24:29;;;;;;;1.42;0.55;;;;;;;20.98;28.38;101356.44;15537018;28;20096;-49
2023/05/09 12:32:02;;;;;;;0.43;0.40;;;;;;;21.64;27.20;101366.88;15539511;28;20045;-51
2023/05/09 12:39:36;;;;;;;0.55;0.20;;;;;;;21.67;26.47;101347.19;15540116;28;20048;-48
2023/05/09 12:47:12;;;;;;;1.33;0.50;;;;;;;21.37;26.02;101351.47;15542914;28;20038;-50
2023/05/09 12:54:47;;;;;;;1.83;0.50;;;;;;;21.09;27.06;101339.03;15541379;28;20125;-50
2023/05/09 13:02:20;;;;;;;0.40;0.40;;;;;;;21.15;26.05;101323.50;15542383;28;20041;-49
2023/05/09 13:09:59;;;;;;;1.27;0.82;;;;;;;21.40;26.04;101314.59;15540808;28;20572;-50
2023/05/09 13:17:32;;;;;;;0.47;0.45;;;;;;;22.15;25.95;101309.59;15542145;28;20515;-48
2023/05/09 13:25:07;;;;;;;2.83;0.35;;;;;;;21.04;26.91;101278.97;15523873;28;20066;-50
2023/05/09 13:32:40;;;;;;;0.63;0.30;;;;;;;19.57;27.56;101273.25;15521880;28;20064;-48
2023/05/09 13:40:27;;;;;;;4.97;0.70;;;;;;;19.56;28.46;101256.06;15528675;28;20363;-49
2023/05/09 13:48:11;;;;;;;1.10;0.70;;;;;;;19.32;29.27;101231.06;15540540;28;20132;-48
2023/05/09 13:55:46;;;;;;;1.23;0.47;;;;;;;19.32;29.68;101214.75;15472736;28;20152;-47
2023/05/09 14:03:19;;;;;;;0.70;0.40;;;;;;;19.95;28.80;101192.41;15512286;28;20068;-49
2023/05/09 14:10:56;;;;;;;;;;;;;;;19.64;29.90;101192.19;15545101;28;20454;-46
2023/05/09 14:18:29;;;;;;;1.25;0.38;;;;;;;19.46;29.40;101192.53;15549268;28;20433;-48
2023/05/09 14:26:07;;;;;;;0.43;0.30;;;;;;;19.53;31.68;101177.63;15548921;28;20038;-48
2023/05/09 14:33:39;;;;;;;1.23;0.43;;;;;;;19.27;28.97;101167.59;15547890;28;20050;-51
2023/05/09 14:41:14;;;;;;;1.48;0.93;;;;;;;19.48;30.30;101146.81;15519911;28;20080;-46
2023/05/09 14:48:47;;;;;;;0.85;0.57;;;;;;;19.20;30.54;101145.19;15555279;28;20046;-48
2023/05/09 14:56:20;;;;;;;;;;;;;;;19.32;32.50;101135.81;15552773;28;20077;-50
2023/05/09 15:03:53;;;;;;;1.48;0.60;;;;;;;19.37;30.84;101119.50;15549427;28;19995;-49
2023/05/09 15:11:27;;;;;;;0.93;0.32;;;;;;;19.23;29.83;101122.91;15545938;28;20042;-47
2023/05/09 15:19:00;;;;;;;0.35;0.32;;;;;;;18.88;29.99;101101.63;15527231;28;20239;-48
2023/05/09 15:26:34;;;;;;;1.33;0.60;;;;;;;18.88;30.50;101104.34;15525800;28;20084;-50
2023/05/09 15:34:07;;;;;;;0.68;0.38;;;;;;;19.04;31.41;101114.31;15542674;28;20042;-46
2023/05/09 15:41:43;;;;;;;0.40;0.40;;;;;;;18.87;30.33;101095.38;15498169;28;20185;-47
2023/05/09 15:49:16;;;;;;;0.55;0.45;;;;;;;18.92;30.82;101083.72;15509945;28;20069;-48
2023/05/09 15:56:50;;;;;;;0.20;0.20;;;;;;;18.84;31.12;101083.13;15533822;28;20101;-47
2023/05/09 16:04:24;;;;;;;1.45;0.68;;;;;;;18.83;31.26;101076.00;15543635;28;20056;-52
2023/05/09 16:12:00;;;;;;;0.60;0.30;;;;;;;18.91;30.87;101063.84;15518524;28;20057;-47
2023/05/09 16:19:33;;;;;;;1.65;0.68;;;;;;;18.64;31.49;101055.66;15539905;28;20038;-46
2023/05/09 16:27:07;;;;;;;2.25;0.43;;;;;;;18.73;33.56;101051.44;15539319;28;20502;-50
2023/05/09 16:34:40;;;;;;;2.67;0.73;;;;;;;18.60;32.85;101038.22;15507601;28;20045;-50
2023/05/09 16:42:14;;;;;;;1.10;0.68;;;;;;;18.40;32.73;101030.69;15515367;28;20132;-53
2023/05/09 16:49:47;;;;;;;0.73;0.38;;;;;;;18.50;33.13;101030.78;15548808;28;20050;-49
2023/05/09 16:57:21;;;;;;;;;;;;;;;18.13;33.77;101024.38;15527272;28;20519;-47
2023/05/09 17:04:53;;;;;;;0.30;0.20;;;;;;;18.16;35.06;101021.97;15507116;23;20028;-51
2023/05/09 17:12:28;;;;;;;1.75;0.55;;;;;;;18.29;34.22;101009.91;15527835;28;20042;-52
2023/05/09 17:20:04;;;;;;;1.33;0.75;;;;;;;17.93;34.79;101004.03;15529698;28;20050;-53
2023/05/09 17:27:41;;;;;;;0.82;0.63;;;;;;;18.04;34.91;101002.25;15518173;28;20073;-50
2023/05/09 17:35:14;;;;;;;0.80;0.60;;;;;;;17.72;36.39;100991.22;15548016;28;20085;-50
2023/05/09 17:42:48;;;;;;;0.70;0.60;;;;;;;17.59;36.15;100978.88;15514862;28;20077;-50
2023/05/09 17:50:20;;;;;;;0.45;0.20;;;;;;;17.55;35.70;100981.25;15544025;28;20518;-50
2023/05/09 17:57:54;;;;;;;1.33;0.65;;;;;;;17.31;36.33;100961.66;15562923;28;20049;-50
2023/05/09 18:05:28;;;;;;;0.60;0.52;;;;;;;17.24;36.56;100974.56;15539698;28;20046;-48
2023/05/09 18:13:02;;;;;;;20.55;0.80;;;;;;;17.33;36.86;100964.94;15543472;28;20053;-50
2023/05/09 18:20:36;;;;;;;1.08;0.85;;;;;;;17.22;36.75;100956.91;15544867;28;20046;-55
2023/05/09 18:28:10;;;;;;;0.55;0.30;;;;;;;16.96;37.72;100963.81;15536677;28;20042;-55
2023/05/09 18:35:43;;;;;;;0.43;0.40;;;;;;;16.56;38.08;100964.78;15553133;28;20052;-51
2023/05/09 18:43:20;;;;;;;0.77;0.47;;;;;;;16.42;38.41;100964.25;15553821;28;20049;-55
2023/05/09 18:50:53;;;;;;;1.90;0.60;;;;;;;16.54;38.45;100970.41;15560438;28;20077;-50
2023/05/09 18:58:27;;;;;;;2.77;0.70;;;;;;;16.33;38.81;100968.41;15544923;28;20033;-49
2023/05/09 19:06:01;;;;;;;6.68;0.68;;;;;;;15.98;39.09;100971.25;15561802;28;20669;-53
2023/05/09 19:13:39;;;;;;;6.43;0.75;;;;;;;15.82;39.45;100975.53;15537165;28;20478;-56
2023/05/09 19:21:14;;;;;;;1.40;0.40;;;;;;;15.72;39.20;100964.50;15527392;28;20070;-53
2023/05/09 19:28:48;;;;;;;0.95;0.55;;;;;;;15.33;39.81;100961.47;15520192;28;20372;-55
2023/05/09 19:36:21;;;;;;;1.80;1.08;;;;;;;15.24;39.72;100955.56;15521521;28;20096;-55
2023/05/09 19:43:56;;;;;;;0.38;0.30;;;;;;;15.10;40.11;100943.34;15527944;28;20058;-57
2023/05/09 19:51:29;;;;;;;1.10;0.70;;;;;;;14.84;40.69;100950.06;15514087;28;20523;-55
2023/05/09 19:59:04;;;;;;;3.33;1.08;;;;;;;14.98;40.08;100946.06;15536654;28;20422;-53
2023/05/09 20:06:36;;;;;;;0.47;0.47;;;;;;;14.86;40.32;100947.09;15516515;28;20041;-51
2023/05/09 20:14:13;;;;;;;0.98;0.50;;;;;;;14.80;40.53;100936.19;15502868;28;20384;-53
2023/05/09 20:21:46;;;;;;;1.45;0.93;;;;;;;14.50;41.38;100935.41;15520055;28;20050;-50
2023/05/09 20:29:21;;;;;;;2.10;0.60;;;;;;;14.61;41.04;100923.81;15543928;28;20049;-50
2023/05/09 20:36:54;;;;;;;0.50;0.50;;;;;;;14.17;41.81;100914.28;15543124;28;20458;-50
2023/05/09 20:44:29;;;;;;;1.60;0.65;;;;;;;14.09;41.90;100911.91;15514422;28;20506;-54
2023/05/09 20:52:01;;;;;;;3.28;0.90;;;;;;;14.12;41.78;100901.47;15522306;28;20111;-49
2023/05/09 20:59:36;;;;;;;0.77;0.70;;;;;;;14.03;42.22;100895.59;15533399;28;20141;-52
2023/05/09 21:07:10;;;;;;;0.73;0.70;;;;;;;13.95;42.89;100881.59;15524425;28;20438;-53
2023/05/09 21:14:45;;;;;;;1.83;0.82;;;;;;;13.93;43.13;100878.28;15525320;28;20344;-55
2023/05/09 21:22:18;;;;;;;24.98;1.38;;;;;;;13.73;43.72;100878.56;15549004;28;20158;-52
2023/05/09 21:29:52;;;;;;;2.67;0.63;;;;;;;13.66;44.19;100878.66;15505691;28;20400;-49
2023/05/09 21:37:25;;;;;;;3.53;1.23;;;;;;;13.48;45.00;100875.97;15548543;28;20153;-52
2023/05/09 21:45:00;;;;;;;1.90;1.00;;;;;;;13.72;44.60;100864.25;15525989;28;20050;-51
2023/05/09 21:52:34;;;;;;;0.68;0.47;;;;;;;13.53;45.12;100862.63;15547056;28;20561;-50
2023/05/09 22:00:12;;;;;;;2.30;1.13;;;;;;;13.40;45.69;100855.53;15547607;28;20351;-52
2023/05/09 22:08:00;;;;;;;1.70;0.80;;;;;;;13.33;45.91;100862.03;15543499;28;20427;-52
2023/05/09 22:15:35;;;;;;;0.98;0.80;;;;;;;13.35;45.95;100862.66;15502787;28;20278;-53
2023/05/09 22:23:08;;;;;;;1.58;0.60;;;;;;;12.92;47.42;100863.50;15546587;28;20073;-54
2023/05/09 22:30:43;;;;;;;1.75;0.73;;;;;;;13.02;47.34;100863.81;15533814;28;20140;-50
2023/05/09 22:38:16;;;;;;;1.20;0.85;;;;;;;12.86;47.80;100850.91;15544375;28;20514;-51
2023/05/09 22:45:51;;;;;;;0.57;0.45;;;;;;;12.92;47.92;100850.84;15553161;28;20046;-53
2023/05/09 22:53:24;;;;;;;2.20;1.10;;;;;;;12.84;47.43;100794.56;15552023;28;20050;-53
2023/05/09 23:00:58;;;;;;;3.50;0.98;;;;;;;12.69;48.43;100835.31;15512102;28;20052;-51
2023/05/09 23:08:31;;;;;;;1.55;0.90;;;;;;;12.74;48.37;100827.41;15548661;28;20475;-51
2023/05/09 23:16:06;;;;;;;3.38;1.70;;;;;;;12.44;49.19;100821.84;15553648;28;20684;-50
2023/05/09 23:23:39;;;;;;;2.00;1.48;;;;;;;12.23;49.63;100817.69;15518579;28;20526;-54
2023/05/09 23:31:18;;;;;;;9.32;0.93;;;;;;;12.20;49.86;100810.06;15536835;28;20435;-52
2023/05/09 23:38:50;;;;;;;0.90;0.80;;;;;;;12.28;49.71;100800.06;15554498;28;20050;-51
2023/05/09 23:46:24;;;;;;;1.73;0.73;;;;;;;11.98;50.57;100795.31;15516253;28;20042;-51
2023/05/09 23:53:57;;;;;;;1.00;0.60;;;;;;;12.13;50.10;100789.63;15553342;28;20439;-51
